Time;durP1;ratioP1;P1;durP2;ratioP2;P2;SDS_P1;SDS_P2;PMS_P1;PMS_P2;Temp;Humidity;BMP_temperature;BMP_pressure;BME280_temperature;BME280_humidity;BME280_pressure;Samples;Min_cycle;Max_cycle;Signal;HPM_P1;HPM_P2
2021/11/29 00:00:10;;;;;;;13.23;8.30;;;4.30;99.90;;;;;;5079926;28;20300;-80
2021/11/29 00:02:37;;;;;;;17.40;9.52;;;4.00;99.90;;;;;;5100654;22;20286;-79
2021/11/29 00:05:05;;;;;;;13.40;9.02;;;4.20;99.90;;;;;;5075728;28;20647;-80
2021/11/29 00:07:31;;;;;;;14.02;8.75;;;3.90;99.90;;;;;;5079661;28;20220;-78
2021/11/29 00:09:58;;;;;;;14.27;8.95;;;3.90;99.90;;;;;;5075386;28;20672;-79
2021/11/29 00:12:25;;;;;;;13.93;9.13;;;4.10;99.90;;;;;;5076647;28;20585;-78
2021/11/29 00:14:52;;;;;;;14.30;9.25;;;4.00;99.90;;;;;;5088532;28;20211;-78
2021/11/29 00:17:20;;;;;;;15.57;9.00;;;4.10;99.90;;;;;;5079668;28;20209;-79
2021/11/29 00:19:46;;;;;;;13.73;9.15;;;4.10;99.90;;;;;;5085509;28;20686;-78
2021/11/29 00:22:14;;;;;;;14.30;9.85;;;4.40;99.90;;;;;;5078501;28;20225;-78
2021/11/29 00:24:41;;;;;;;15.63;11.20;;;4.10;99.90;;;;;;5078684;28;20207;-79
2021/11/29 00:27:08;;;;;;;15.07;9.50;;;4.30;99.90;;;;;;5078697;28;20550;-78
2021/11/29 00:29:35;;;;;;;13.63;9.30;;;4.10;99.90;;;;;;5078325;28;20212;-80
2021/11/29 00:32:02;;;;;;;13.07;9.57;;;4.00;99.90;;;;;;5079272;28;20632;-79
2021/11/29 00:34:30;;;;;;;14.32;11.27;;;4.10;99.90;;;;;;5082130;28;20573;-79
2021/11/29 00:36:57;;;;;;;15.73;11.15;;;4.10;99.90;;;;;;5081312;28;20198;-79
2021/11/29 00:39:23;;;;;;;17.88;11.35;;;4.00;99.90;;;;;;5079187;28;20205;-79
2021/11/29 00:41:50;;;;;;;16.27;11.50;;;4.50;99.90;;;;;;5079279;28;20222;-79
2021/11/29 00:44:17;;;;;;;16.70;11.20;;;4.30;99.90;;;;;;5079686;28;20330;-79
2021/11/29 00:46:44;;;;;;;19.38;12.18;;;4.50;99.90;;;;;;5079264;28;20216;-80
2021/11/29 00:49:11;;;;;;;21.17;15.02;;;4.40;99.90;;;;;;5078949;28;20611;-79
2021/11/29 00:51:39;;;;;;;18.92;12.57;;;4.30;99.90;;;;;;5078903;28;20202;-79
2021/11/29 00:54:06;;;;;;;20.35;14.07;;;4.10;99.90;;;;;;5080091;28;20230;-79
2021/11/29 00:56:33;;;;;;;18.77;13.43;;;4.20;99.90;;;;;;5078172;28;20209;-79
2021/11/29 00:59:00;;;;;;;20.90;13.90;;;4.30;99.90;;;;;;5077956;28;20669;-78
2021/11/29 01:01:26;;;;;;;16.65;11.45;;;4.30;99.90;;;;;;5078215;28;20664;-78
2021/11/29 01:03:53;;;;;;;23.80;14.10;;;4.30;99.90;;;;;;5079796;28;20263;-78
2021/11/29 01:06:20;;;;;;;20.83;14.25;;;4.20;99.90;;;;;;5079446;28;20210;-78
2021/11/29 01:08:48;;;;;;;19.08;13.18;;;4.40;99.90;;;;;;5080165;28;20206;-77
2021/11/29 01:11:15;;;;;;;22.80;14.00;;;4.40;99.90;;;;;;5079574;28;20550;-78
2021/11/29 01:13:43;;;;;;;22.40;14.65;;;4.30;99.90;;;;;;5077258;28;20310;-78
2021/11/29 01:16:10;;;;;;;19.70;13.48;;;4.20;99.90;;;;;;5078126;28;20573;-78
2021/11/29 01:18:37;;;;;;;20.33;13.55;;;4.00;99.90;;;;;;5079794;28;20627;-78
2021/11/29 01:21:05;;;;;;;21.10;14.48;;;4.20;99.90;;;;;;5079744;28;20233;-78
2021/11/29 01:23:32;;;;;;;20.38;13.50;;;4.20;99.90;;;;;;5079689;28;20225;-78
2021/11/29 01:26:01;;;;;;;21.55;14.63;;;4.10;99.90;;;;;;5087983;28;20201;-78
2021/11/29 01:28:28;;;;;;;21.85;14.75;;;4.40;99.90;;;;;;5091732;28;20277;-78
2021/11/29 01:30:55;;;;;;;22.67;14.90;;;4.30;99.90;;;;;;5090940;28;20231;-78
2021/11/29 01:33:22;;;;;;;23.05;14.77;;;4.30;99.90;;;;;;5083724;28;20256;-78
2021/11/29 01:35:48;;;;;;;20.92;14.85;;;4.30;99.90;;;;;;5081660;28;20219;-78
2021/11/29 01:38:16;;;;;;;23.52;14.98;;;4.10;99.90;;;;;;5083961;28;20236;-78
2021/11/29 01:40:43;;;;;;;25.17;15.93;;;4.40;99.90;;;;;;5078057;28;20221;-78
2021/11/29 01:43:13;;;;;;;24.85;16.05;;;4.40;99.90;;;;;;5077382;28;20221;-78
2021/11/29 01:45:42;;;;;;;24.50;16.50;;;4.20;99.90;;;;;;5077304;28;20189;-78
2021/11/29 01:48:10;;;;;;;21.80;12.90;;;4.00;99.90;;;;;;5077916;28;20229;-78
2021/11/29 01:50:39;;;;;;;21.58;13.35;;;4.20;99.90;;;;;;5078202;28;20205;-78
2021/11/29 01:53:06;;;;;;;21.83;14.32;;;4.40;99.90;;;;;;5077069;28;20335;-78
2021/11/29 01:55:34;;;;;;;21.98;15.32;;;4.40;99.90;;;;;;5078227;28;20212;-78
2021/11/29 01:58:00;;;;;;;22.95;14.73;;;4.10;99.90;;;;;;5090026;28;20277;-78
2021/11/29 02:00:31;;;;;;;23.60;15.57;;;4.10;99.90;;;;;;5079504;28;20209;-78
2021/11/29 02:02:58;;;;;;;23.35;15.50;;;4.10;99.90;;;;;;5077375;28;20233;-78
2021/11/29 02:05:26;;;;;;;23.10;16.17;;;4.00;99.90;;;;;;5081009;28;20213;-78
2021/11/29 02:07:53;;;;;;;27.17;15.77;;;4.00;99.90;;;;;;5081131;28;20205;-78
2021/11/29 02:10:22;;;;;;;25.80;16.08;;;4.10;99.90;;;;;;5080396;28;20215;-78
2021/11/29 02:12:49;;;;;;;23.10;15.65;;;4.30;99.90;;;;;;5083567;28;20234;-78
2021/11/29 02:15:17;;;;;;;22.50;14.98;;;4.20;99.90;;;;;;5079632;28;20259;-78
2021/11/29 02:17:46;;;;;;;22.98;15.93;;;4.20;99.90;;;;;;5081213;28;20201;-78
2021/11/29 02:20:14;;;;;;;23.60;15.45;;;4.30;99.90;;;;;;5078013;28;20213;-78
2021/11/29 02:22:44;;;;;;;28.83;17.90;;;4.20;99.90;;;;;;5078471;28;20229;-78
2021/11/29 02:25:11;;;;;;;26.73;16.13;;;4.40;99.90;;;;;;5079495;28;20243;-78
2021/11/29 02:27:41;;;;;;;22.77;13.32;;;4.40;99.90;;;;;;5077865;28;20217;-78
2021/11/29 02:30:09;;;;;;;25.75;17.10;;;4.40;99.90;;;;;;5077811;28;20209;-78
2021/11/29 02:32:35;;;;;;;23.13;10.23;;;4.60;99.90;;;;;;5077114;28;20222;-78
2021/11/29 02:35:02;;;;;;;22.38;16.52;;;4.50;99.90;;;;;;5076526;28;20678;-78
2021/11/29 02:37:29;;;;;;;24.92;17.48;;;4.60;99.90;;;;;;5076079;28;20674;-78
2021/11/29 02:39:57;;;;;;;26.27;16.50;;;4.30;99.90;;;;;;5076617;28;20245;-78
2021/11/29 02:42:25;;;;;;;21.40;13.57;;;4.40;99.90;;;;;;5078887;28;20275;-78
2021/11/29 02:44:52;;;;;;;26.23;17.60;;;4.40;99.90;;;;;;5080080;28;20704;-78
2021/11/29 02:47:19;;;;;;;24.40;16.55;;;4.20;99.90;;;;;;5076661;28;20681;-78
2021/11/29 02:49:47;;;;;;;29.70;17.17;;;4.40;99.90;;;;;;5076510;28;20300;-78
2021/11/29 02:52:17;;;;;;;30.40;19.00;;;4.30;99.90;;;;;;5076512;28;20201;-78
2021/11/29 02:54:44;;;;;;;26.17;18.08;;;4.10;99.90;;;;;;5081872;28;20675;-78
2021/11/29 02:57:16;;;;;;;26.73;18.48;;;4.20;99.90;;;;;;5080039;28;20201;-78
2021/11/29 02:59:43;;;;;;;29.05;18.38;;;4.10;99.90;;;;;;5078720;28;20197;-78
2021/11/29 03:02:12;;;;;;;30.15;19.55;;;4.20;99.90;;;;;;5077737;28;20599;-78
2021/11/29 03:04:39;;;;;;;28.48;18.30;;;4.20;99.90;;;;;;5076840;28;20216;-78
2021/11/29 03:07:07;;;;;;;24.35;17.15;;;4.50;99.90;;;;;;5077398;28;20212;-78
2021/11/29 03:09:34;;;;;;;25.70;16.55;;;4.60;99.90;;;;;;5076051;28;20205;-78
2021/11/29 03:12:02;;;;;;;33.92;17.02;;;4.50;99.90;;;;;;5076294;28;20197;-79
2021/11/29 03:14:30;;;;;;;25.83;18.30;;;4.60;99.90;;;;;;5077277;28;20221;-77
2021/11/29 03:16:58;;;;;;;25.83;17.35;;;4.60;99.90;;;;;;5076991;28;20216;-79
2021/11/29 03:19:30;;;;;;;26.70;17.42;;;4.40;99.90;;;;;;5077356;28;20205;-78
2021/11/29 03:21:56;;;;;;;29.45;17.83;;;4.00;99.90;;;;;;5076954;28;20573;-78
2021/11/29 03:24:23;;;;;;;27.38;17.60;;;4.10;99.90;;;;;;5076714;28;20225;-78
2021/11/29 03:26:50;;;;;;;24.13;16.63;;;4.40;99.90;;;;;;5076619;28;20205;-78
2021/11/29 03:29:19;;;;;;;27.02;17.95;;;4.00;99.90;;;;;;5076729;28;20220;-78
2021/11/29 03:31:51;;;;;;;26.92;16.85;;;3.90;99.90;;;;;;5075781;28;20334;-78
2021/11/29 03:34:18;;;;;;;24.92;16.52;;;4.10;99.90;;;;;;5075235;28;20236;-78
2021/11/29 03:36:46;;;;;;;26.48;16.95;;;4.10;99.90;;;;;;5075956;28;20205;-78
2021/11/29 03:39:15;;;;;;;29.13;19.63;;;3.90;99.90;;;;;;5078940;28;20216;-78
2021/11/29 03:41:43;;;;;;;26.75;17.42;;;4.20;99.90;;;;;;5078668;28;20320;-78
2021/11/29 03:44:10;;;;;;;26.33;17.98;;;4.10;99.90;;;;;;5079331;28;20221;-78
2021/11/29 03:46:37;;;;;;;30.77;19.20;;;4.00;99.90;;;;;;5085588;28;20248;-78
2021/11/29 03:49:06;;;;;;;25.88;17.00;;;4.30;99.90;;;;;;5086769;28;20216;-78
2021/11/29 03:51:33;;;;;;;27.85;18.88;;;4.20;99.90;;;;;;5084281;28;20229;-78
2021/11/29 03:54:00;;;;;;;28.45;18.15;;;4.20;99.90;;;;;;5080696;28;20240;-78
2021/11/29 03:56:27;;;;;;;25.80;16.42;;;4.30;99.90;;;;;;5080663;28;20231;-79
2021/11/29 03:58:54;;;;;;;25.05;17.00;;;4.50;99.90;;;;;;5081189;28;20206;-78
2021/11/29 04:01:21;;;;;;;25.40;17.52;;;4.30;99.90;;;;;;5080256;28;20212;-78
2021/11/29 04:03:48;;;;;;;30.45;17.50;;;4.30;99.90;;;;;;5082340;28;20237;-78
2021/11/29 04:06:16;;;;;;;24.08;17.27;;;4.10;99.90;;;;;;5081253;28;20641;-78
2021/11/29 04:08:43;;;;;;;25.63;15.93;;;4.40;99.90;;;;;;5080295;28;20219;-78
2021/11/29 04:11:10;;;;;;;23.80;15.98;;;4.50;99.90;;;;;;5079960;28;20210;-78
2021/11/29 04:13:37;;;;;;;24.63;16.73;;;4.20;99.90;;;;;;5079977;28;20237;-78
2021/11/29 04:16:04;;;;;;;23.00;16.48;;;3.90;99.90;;;;;;5080717;28;20205;-78
2021/11/29 04:18:33;;;;;;;25.10;16.80;;;4.10;99.90;;;;;;5080812;28;20576;-78
2021/11/29 04:21:00;;;;;;;25.10;16.98;;;4.20;99.90;;;;;;5082717;28;20213;-78
2021/11/29 04:23:28;;;;;;;28.17;17.15;;;4.40;99.90;;;;;;5083243;28;20268;-77
2021/11/29 04:25:57;;;;;;;25.00;16.70;;;4.50;99.90;;;;;;5081728;28;20205;-78
2021/11/29 04:28:24;;;;;;;24.20;15.98;;;4.20;99.90;;;;;;5084299;28;20677;-78
2021/11/29 04:30:51;;;;;;;26.80;17.10;;;4.10;99.90;;;;;;5083205;28;20209;-78
2021/11/29 04:33:18;;;;;;;26.40;17.33;;;4.10;99.90;;;;;;5081379;28;20288;-78
2021/11/29 04:35:45;;;;;;;28.48;17.90;;;4.30;99.90;;;;;;5081176;28;20209;-78
2021/11/29 04:38:12;;;;;;;29.73;16.02;;;4.40;99.90;;;;;;5079412;28;20205;-78
2021/11/29 04:40:41;;;;;;;27.00;16.73;;;4.40;99.90;;;;;;5079358;28;20209;-78
2021/11/29 04:43:08;;;;;;;26.70;16.58;;;4.60;99.90;;;;;;5079555;28;20236;-78
2021/11/29 04:45:35;;;;;;;24.55;15.82;;;4.60;99.90;;;;;;5079667;28;20209;-78
2021/11/29 04:48:02;;;;;;;26.23;17.30;;;4.70;99.90;;;;;;5077600;28;20205;-78
2021/11/29 04:50:29;;;;;;;27.08;17.00;;;4.40;99.90;;;;;;5076951;28;20201;-79
2021/11/29 04:52:56;;;;;;;26.20;17.10;;;4.40;99.90;;;;;;5077106;28;20221;-78
2021/11/29 04:55:23;;;;;;;29.30;17.33;;;4.40;99.90;;;;;;5084212;28;20215;-79
2021/11/29 04:57:51;;;;;;;27.25;16.45;;;4.40;99.90;;;;;;5083483;28;20684;-77
2021/11/29 05:00:20;;;;;;;22.35;13.85;;;4.30;99.90;;;;;;5077086;28;20682;-77
2021/11/29 05:02:47;;;;;;;25.98;16.27;;;4.30;99.90;;;;;;5077190;28;20233;-79
2021/11/29 05:05:15;;;;;;;24.27;13.32;;;4.30;99.90;;;;;;5077346;28;20186;-77
2021/11/29 05:07:41;;;;;;;22.42;13.77;;;4.30;99.90;;;;;;5077171;28;20223;-77
2021/11/29 05:10:09;;;;;;;22.13;13.48;;;4.50;99.90;;;;;;5077264;28;20209;-77
2021/11/29 05:12:36;;;;;;;22.00;14.77;;;4.20;99.90;;;;;;5078150;28;20685;-77
2021/11/29 05:15:06;;;;;;;24.63;16.05;;;4.30;99.90;;;;;;5078020;28;20236;-77
2021/11/29 05:17:33;;;;;;;23.00;14.60;;;4.20;99.90;;;;;;5077657;28;20212;-77
2021/11/29 05:19:59;;;;;;;22.10;15.20;;;4.10;99.90;;;;;;5079209;28;20580;-77
2021/11/29 05:22:27;;;;;;;23.67;15.63;;;4.20;99.90;;;;;;5084462;28;20225;-77
2021/11/29 05:24:53;;;;;;;22.15;13.23;;;4.30;99.90;;;;;;5082929;28;20213;-78
2021/11/29 05:27:20;;;;;;;21.38;14.57;;;4.30;99.90;;;;;;5082268;28;20613;-78
2021/11/29 05:29:47;;;;;;;24.95;16.00;;;4.40;99.90;;;;;;5090843;28;20682;-79
2021/11/29 05:32:15;;;;;;;22.40;14.48;;;4.10;99.90;;;;;;5081930;28;20692;-79
2021/11/29 05:34:42;;;;;;;24.48;15.32;;;4.40;99.90;;;;;;5085460;28;20201;-78
2021/11/29 05:37:09;;;;;;;25.33;15.73;;;4.30;99.90;;;;;;5083509;28;20220;-78
2021/11/29 05:39:35;;;;;;;25.77;15.85;;;4.20;99.90;;;;;;5084450;28;20228;-78
2021/11/29 05:42:02;;;;;;;24.73;15.75;;;4.20;99.90;;;;;;5079879;28;20230;-78
2021/11/29 05:44:29;;;;;;;25.45;17.52;;;4.10;99.90;;;;;;5080020;28;20225;-77
2021/11/29 05:46:56;;;;;;;26.05;16.20;;;4.00;99.90;;;;;;5084146;28;20604;-78
2021/11/29 05:49:24;;;;;;;26.25;16.30;;;4.40;99.90;;;;;;5078828;28;20512;-78
2021/11/29 05:51:51;;;;;;;24.27;16.60;;;4.50;99.90;;;;;;5076002;28;20228;-77
2021/11/29 05:54:18;;;;;;;25.02;16.42;;;4.30;99.90;;;;;;5075257;28;20298;-78
2021/11/29 05:56:44;;;;;;;21.67;14.80;;;4.20;99.90;;;;;;5075193;28;20221;-78
2021/11/29 05:59:11;;;;;;;20.15;14.00;;;4.30;99.90;;;;;;5075171;28;20209;-78
2021/11/29 06:01:38;;;;;;;27.05;17.23;;;4.40;99.90;;;;;;5075016;28;20213;-78
2021/11/29 06:04:05;;;;;;;24.67;15.93;;;4.20;99.90;;;;;;5113013;22;20232;-78
2021/11/29 06:06:33;;;;;;;25.27;16.05;;;4.10;99.90;;;;;;5098682;28;20201;-80
2021/11/29 06:09:00;;;;;;;26.92;16.63;;;4.10;99.90;;;;;;5099108;28;20205;-78
2021/11/29 06:11:27;;;;;;;23.60;15.75;;;4.00;99.90;;;;;;5098047;28;20204;-78
2021/11/29 06:13:53;;;;;;;24.23;15.52;;;4.30;99.90;;;;;;5097477;28;20225;-79
2021/11/29 06:16:20;;;;;;;23.70;13.90;;;4.30;99.90;;;;;;5099933;28;20204;-79
2021/11/29 06:18:47;;;;;;;23.30;14.43;;;4.40;99.90;;;;;;5098641;28;20201;-79
2021/11/29 06:21:14;;;;;;;16.75;10.38;;;4.50;99.90;;;;;;5098217;28;20307;-79
2021/11/29 06:23:42;;;;;;;20.35;12.57;;;4.10;99.90;;;;;;5097335;28;20296;-79
2021/11/29 06:26:09;;;;;;;22.20;13.38;;;4.20;99.90;;;;;;5098838;28;20294;-79
2021/11/29 06:28:36;;;;;;;22.73;13.90;;;4.10;99.90;;;;;;5098138;28;20268;-78
2021/11/29 06:31:03;;;;;;;22.90;12.50;;;4.20;99.90;;;;;;5104841;28;20213;-78
2021/11/29 06:33:30;;;;;;;20.48;14.10;;;4.10;99.90;;;;;;5099032;28;20227;-78
2021/11/29 06:35:58;;;;;;;19.70;12.23;;;4.10;99.90;;;;;;5097814;28;20205;-79
2021/11/29 06:38:26;;;;;;;19.65;11.35;;;4.00;99.90;;;;;;5098904;28;20211;-78
2021/11/29 06:40:55;;;;;;;18.85;12.60;;;4.20;99.90;;;;;;5098523;28;20570;-79
2021/11/29 06:43:23;;;;;;;23.90;13.55;;;4.10;99.90;;;;;;5097195;28;20229;-78
2021/11/29 06:45:50;;;;;;;25.35;14.07;;;4.20;99.90;;;;;;5096805;28;20207;-79
2021/11/29 06:48:17;;;;;;;18.77;11.95;;;4.30;99.90;;;;;;5097638;28;20204;-80
2021/11/29 06:50:45;;;;;;;18.10;10.57;;;4.20;99.90;;;;;;5098223;28;20197;-80
2021/11/29 06:53:12;;;;;;;17.55;11.90;;;4.30;99.90;;;;;;5099080;28;20221;-79
2021/11/29 06:55:40;;;;;;;20.85;12.00;;;4.10;99.90;;;;;;5100058;28;20201;-79
2021/11/29 06:58:08;;;;;;;18.10;10.60;;;4.10;99.90;;;;;;5099243;28;20669;-79
2021/11/29 07:00:36;;;;;;;20.13;12.02;;;4.40;99.90;;;;;;5098113;28;20215;-79
2021/11/29 07:03:02;;;;;;;16.77;10.48;;;4.20;99.90;;;;;;5096858;28;20236;-78
2021/11/29 07:05:29;;;;;;;17.08;11.13;;;4.20;99.90;;;;;;5097048;28;20195;-78
2021/11/29 07:07:57;;;;;;;16.90;11.63;;;4.30;99.90;;;;;;5097743;28;20237;-79
2021/11/29 07:10:25;;;;;;;20.50;10.05;;;4.00;99.90;;;;;;5097854;28;20220;-79
2021/11/29 07:12:53;;;;;;;16.60;10.38;;;4.30;99.90;;;;;;5097547;28;20221;-80
2021/11/29 07:15:23;;;;;;;16.63;9.85;;;4.20;99.90;;;;;;5099278;28;20228;-80
2021/11/29 07:17:51;;;;;;;15.90;9.55;;;4.20;99.90;;;;;;5099481;28;20208;-79
2021/11/29 07:20:18;;;;;;;13.75;8.73;;;4.20;99.90;;;;;;5104524;28;20291;-79
2021/11/29 07:22:45;;;;;;;13.95;9.25;;;4.20;99.90;;;;;;5105564;28;20299;-79
2021/11/29 07:25:13;;;;;;;15.25;9.10;;;4.30;99.90;;;;;;5105109;28;20211;-79
2021/11/29 07:27:40;;;;;;;16.40;9.45;;;4.40;99.90;;;;;;5114051;28;20292;-78
2021/11/29 07:30:09;;;;;;;16.60;9.93;;;4.40;99.90;;;;;;5112439;28;20236;-80
2021/11/29 07:32:38;;;;;;;12.77;8.45;;;4.30;99.90;;;;;;5104863;28;20196;-80
2021/11/29 07:35:07;;;;;;;13.70;9.18;;;4.30;99.90;;;;;;5105083;28;20213;-79
2021/11/29 07:37:34;;;;;;;16.17;8.48;;;4.40;99.90;;;;;;5104572;28;20211;-80
2021/11/29 07:40:02;;;;;;;13.20;9.02;;;4.20;99.90;;;;;;5104120;28;20208;-79
2021/11/29 07:42:30;;;;;;;14.25;7.82;;;4.40;99.90;;;;;;5113083;28;20208;-78
2021/11/29 07:44:57;;;;;;;12.05;7.50;;;4.40;99.90;;;;;;5115850;28;20265;-78
2021/11/29 07:47:24;;;;;;;17.15;7.15;;;4.60;99.90;;;;;;5116225;28;20207;-79
2021/11/29 07:49:52;;;;;;;13.68;8.40;;;4.30;99.90;;;;;;5112823;28;20231;-79
2021/11/29 07:52:19;;;;;;;12.38;7.10;;;4.40;99.90;;;;;;5114309;28;20256;-80
2021/11/29 07:54:46;;;;;;;13.02;8.32;;;4.50;99.90;;;;;;5116533;28;20232;-79
2021/11/29 07:57:16;;;;;;;16.50;8.13;;;4.20;99.90;;;;;;5114003;28;20215;-79
2021/11/29 07:59:43;;;;;;;12.25;6.85;;;4.10;99.90;;;;;;5115350;28;20201;-80
2021/11/29 08:02:12;;;;;;;13.40;8.45;;;4.10;99.90;;;;;;5106185;28;20233;-80
2021/11/29 08:04:39;;;;;;;12.00;8.32;;;4.10;99.90;;;;;;5102627;28;20256;-80
2021/11/29 08:07:07;;;;;;;11.30;7.75;;;4.10;99.90;;;;;;5100836;28;20220;-80
2021/11/29 08:09:34;;;;;;;11.00;6.53;;;4.10;99.90;;;;;;5101905;28;20223;-79
2021/11/29 08:12:00;;;;;;;10.80;6.80;;;4.30;99.90;;;;;;5102325;28;20211;-79
2021/11/29 08:14:27;;;;;;;10.15;6.55;;;4.10;99.90;;;;;;5101818;28;20224;-79
2021/11/29 08:16:54;;;;;;;13.95;6.93;;;4.10;99.90;;;;;;5104146;28;20299;-79
2021/11/29 08:19:21;;;;;;;11.00;6.72;;;4.10;99.90;;;;;;5103469;28;20208;-79
2021/11/29 08:21:48;;;;;;;8.95;4.80;;;4.30;99.90;;;;;;5101942;28;20231;-79
2021/11/29 08:24:16;;;;;;;12.32;6.45;;;4.20;99.90;;;;;;5101360;28;20232;-80
2021/11/29 08:26:43;;;;;;;10.90;6.63;;;4.20;99.90;;;;;;5101013;28;20633;-79
2021/11/29 08:29:10;;;;;;;13.30;7.35;;;4.10;99.90;;;;;;5102107;28;20307;-80
2021/11/29 08:31:36;;;;;;;12.90;6.10;;;4.30;99.90;;;;;;5100128;28;20207;-79
2021/11/29 08:34:03;;;;;;;10.52;6.90;;;4.40;99.90;;;;;;5100296;28;20225;-79
2021/11/29 08:36:30;;;;;;;12.65;6.65;;;4.10;99.90;;;;;;5098732;28;20601;-79
2021/11/29 08:38:57;;;;;;;14.00;7.13;;;4.40;99.90;;;;;;5105131;28;20204;-79
2021/11/29 08:41:27;;;;;;;11.57;6.55;;;4.50;99.90;;;;;;5100933;28;20223;-79
2021/11/29 08:43:54;;;;;;;11.88;6.50;;;4.60;99.90;;;;;;5099255;28;20290;-79
2021/11/29 08:46:22;;;;;;;10.85;5.90;;;4.50;99.90;;;;;;5099836;28;20209;-79
2021/11/29 08:48:49;;;;;;;9.18;4.82;;;4.50;99.90;;;;;;5099286;28;20219;-79
2021/11/29 08:51:17;;;;;;;8.98;5.75;;;4.50;99.90;;;;;;5099521;28;20236;-81
2021/11/29 08:53:44;;;;;;;10.95;6.05;;;4.70;99.90;;;;;;5099457;28;20250;-79
2021/11/29 08:56:11;;;;;;;10.77;7.28;;;4.40;99.90;;;;;;5100123;28;20537;-80
2021/11/29 08:58:40;;;;;;;12.40;6.70;;;4.20;99.90;;;;;;5099169;28;20208;-79
2021/11/29 09:01:06;;;;;;;12.23;5.63;;;4.50;99.90;;;;;;5100119;28;20209;-79
2021/11/29 09:03:33;;;;;;;10.20;5.97;;;4.40;99.90;;;;;;5099691;28;20233;-80
2021/11/29 09:06:00;;;;;;;15.73;6.90;;;4.30;99.90;;;;;;5099323;28;20207;-81
2021/11/29 09:08:28;;;;;;;12.95;6.50;;;4.40;99.90;;;;;;5098627;28;20205;-79
2021/11/29 09:10:55;;;;;;;11.63;7.20;;;4.40;99.90;;;;;;5099716;28;20579;-79
2021/11/29 09:13:22;;;;;;;11.68;6.85;;;4.30;99.90;;;;;;5099328;28;20645;-80
2021/11/29 09:15:50;;;;;;;10.90;7.30;;;4.40;99.90;;;;;;5099365;28;20672;-79
2021/11/29 09:18:17;;;;;;;12.23;6.97;;;4.40;99.90;;;;;;5099547;28;20208;-79
2021/11/29 09:20:44;;;;;;;12.25;7.22;;;4.30;99.90;;;;;;5111619;28;20214;-78
2021/11/29 09:23:12;;;;;;;12.98;7.05;;;4.50;99.90;;;;;;5102878;28;20228;-79
2021/11/29 09:25:41;;;;;;;15.98;6.68;;;4.50;99.90;;;;;;5102551;28;20289;-79
2021/11/29 09:28:09;;;;;;;13.30;6.68;;;4.60;99.90;;;;;;5108022;28;20204;-79
2021/11/29 09:30:37;;;;;;;12.55;6.00;;;4.60;99.90;;;;;;5099773;28;20232;-79
2021/11/29 09:33:05;;;;;;;9.00;5.75;;;4.80;99.90;;;;;;5099711;28;20231;-78
2021/11/29 09:35:32;;;;;;;11.25;6.38;;;4.70;99.90;;;;;;5099218;28;20211;-79
2021/11/29 09:37:59;;;;;;;12.13;5.80;;;4.80;99.90;;;;;;5099902;28;20224;-78
2021/11/29 09:40:33;;;;;;;9.45;4.93;;;4.70;99.90;;;;;;5098216;28;20232;-80
2021/11/29 09:43:00;;;;;;;8.98;3.90;;;4.80;99.90;;;;;;5099735;28;20301;-81
2021/11/29 09:45:27;;;;;;;12.35;5.03;;;5.00;99.90;;;;;;5098718;28;20231;-79
2021/11/29 09:47:54;;;;;;;8.75;4.82;;;4.90;99.90;;;;;;5098677;28;20212;-80
2021/11/29 09:50:23;;;;;;;11.25;5.30;;;5.10;99.90;;;;;;5098531;28;20205;-80
2021/11/29 09:52:50;;;;;;;10.48;5.03;;;5.20;99.90;;;;;;5098269;28;20238;-79
2021/11/29 09:55:19;;;;;;;7.32;4.60;;;5.00;99.90;;;;;;5098381;28;20196;-79
2021/11/29 09:57:46;;;;;;;6.57;3.90;;;5.20;99.90;;;;;;5097454;28;20211;-78
2021/11/29 10:00:16;;;;;;;7.70;3.92;;;5.20;99.90;;;;;;5099569;28;20208;-79
2021/11/29 10:02:43;;;;;;;8.00;4.10;;;5.20;99.90;;;;;;5102559;28;20227;-78
2021/11/29 10:05:10;;;;;;;8.73;4.00;;;5.40;99.90;;;;;;5097370;28;20219;-80
2021/11/29 10:07:45;;;;;;;10.15;6.38;;;5.50;99.90;;;;;;5097783;28;20209;-79
2021/11/29 10:10:16;;;;;;;4.20;2.40;;;5.30;99.90;;;;;;5098120;28;20188;-79
2021/11/29 10:12:43;;;;;;;15.07;4.40;;;5.10;99.90;;;;;;5098092;28;20189;-80
2021/11/29 10:15:17;;;;;;;7.18;3.65;;;5.20;99.90;;;;;;5098194;28;20643;-79
2021/11/29 10:17:44;;;;;;;6.20;3.40;;;5.40;99.90;;;;;;5098215;28;20632;-79
2021/11/29 10:20:11;;;;;;;7.38;4.10;;;5.40;99.90;;;;;;5102865;28;20299;-79
2021/11/29 10:22:41;;;;;;;7.60;3.50;;;5.40;99.90;;;;;;5111562;28;20657;-78
2021/11/29 10:25:17;;;;;;;7.03;4.00;;;5.50;99.90;;;;;;5107606;28;20297;-78
2021/11/29 10:27:44;;;;;;;9.45;4.28;;;5.50;99.90;;;;;;5106544;28;20272;-79
2021/11/29 10:30:15;;;;;;;7.95;4.15;;;5.50;99.90;;;;;;5110866;28;20200;-80
2021/11/29 10:32:44;;;;;;;11.35;4.15;;;5.50;99.90;;;;;;5098331;28;20200;-80
2021/11/29 10:35:13;;;;;;;6.78;3.70;;;5.60;99.90;;;;;;5101456;28;20197;-80
2021/11/29 10:37:44;;;;;;;8.63;3.35;;;5.70;99.90;;;;;;5100344;28;20295;-78
2021/11/29 10:40:14;;;;;;;7.00;3.63;;;5.80;99.90;;;;;;5099849;28;20189;-79
2021/11/29 10:42:41;;;;;;;5.60;2.95;;;5.50;99.90;;;;;;5099595;28;20586;-79
2021/11/29 10:45:20;;;;;;;7.32;3.60;;;5.50;99.90;;;;;;5099254;28;20224;-78
2021/11/29 10:47:48;;;;;;;6.88;3.72;;;5.50;99.90;;;;;;5099064;28;20610;-80
2021/11/29 10:50:15;;;;;;;6.50;2.70;;;5.40;99.90;;;;;;5098059;28;20304;-79
2021/11/29 10:52:47;;;;;;;8.52;3.63;;;5.40;99.90;;;;;;5098248;28;20204;-82
2021/11/29 10:55:14;;;;;;;6.85;3.47;;;5.40;99.90;;;;;;5098967;28;20193;-80
2021/11/29 10:57:47;;;;;;;7.15;3.45;;;5.50;99.90;;;;;;5100351;28;20599;-80
2021/11/29 11:00:17;;;;;;;6.63;3.58;;;5.60;99.90;;;;;;5099200;28;20671;-80
2021/11/29 11:03:01;;;;;;;6.15;3.45;;;5.80;99.90;;;;;;5098572;28;20288;-78
2021/11/29 11:05:28;;;;;;;8.45;3.97;;;5.60;99.90;;;;;;5105852;28;20208;-79
2021/11/29 11:08:08;;;;;;;8.63;3.78;;;5.50;99.90;;;;;;5100458;28;20362;-79
2021/11/29 11:10:35;;;;;;;6.38;3.90;;;5.50;99.90;;;;;;5097397;28;20227;-79
2021/11/29 11:13:04;;;;;;;7.03;3.33;;;5.70;99.90;;;;;;5098019;28;20242;-79
2021/11/29 11:15:32;;;;;;;6.93;3.47;;;5.80;99.90;;;;;;5098478;28;20200;-78
2021/11/29 11:17:59;;;;;;;7.00;3.10;;;5.70;99.90;;;;;;5097438;28;20258;-80
2021/11/29 11:20:26;;;;;;;10.43;6.10;;;5.80;99.90;;;;;;5097007;28;20262;-79
2021/11/29 11:22:55;;;;;;;10.43;3.80;;;5.50;99.90;;;;;;5097395;28;20227;-79
2021/11/29 11:25:26;;;;;;;11.15;4.38;;;5.70;99.90;;;;;;5097440;28;20256;-80
2021/11/29 11:27:58;;;;;;;7.20;3.63;;;5.50;99.90;;;;;;5098016;28;20199;-80
2021/11/29 11:30:26;;;;;;;9.63;4.15;;;5.20;99.90;;;;;;5096813;28;20189;-81
2021/11/29 11:32:57;;;;;;;7.60;3.97;;;5.10;99.90;;;;;;5098224;28;20228;-78
2021/11/29 11:35:29;;;;;;;6.90;3.85;;;5.50;99.90;;;;;;5109342;28;20192;-79
2021/11/29 11:37:58;;;;;;;8.60;5.45;;;5.40;99.90;;;;;;5097906;28;20519;-79
2021/11/29 11:40:28;;;;;;;9.10;4.50;;;5.20;99.90;;;;;;5096961;28;20589;-80
2021/11/29 11:42:57;;;;;;;8.55;4.25;;;5.40;99.90;;;;;;5098785;28;20315;-78
2021/11/29 11:45:26;;;;;;;7.80;4.85;;;5.40;99.90;;;;;;5101293;28;20247;-81
2021/11/29 11:47:54;;;;;;;7.38;3.70;;;5.50;99.90;;;;;;5098704;28;20208;-80
2021/11/29 11:50:23;;;;;;;8.85;3.70;;;5.60;99.90;;;;;;5104895;28;20204;-78
2021/11/29 11:52:51;;;;;;;9.60;4.20;;;5.70;99.90;;;;;;5104730;28;20204;-80
2021/11/29 11:55:20;;;;;;;6.78;3.60;;;5.50;99.90;;;;;;5099449;28;20253;-79
2021/11/29 11:57:51;;;;;;;10.10;4.70;;;5.60;99.90;;;;;;5099236;28;20574;-80
2021/11/29 12:00:23;;;;;;;9.98;3.95;;;5.30;99.90;;;;;;5099652;28;20193;-80
2021/11/29 12:03:18;;;;;;;8.60;4.70;;;5.30;99.90;;;;;;5098881;28;20212;-82
2021/11/29 12:05:54;;;;;;;6.78;4.20;;;5.30;99.90;;;;;;5094747;22;20658;-78
2021/11/29 12:08:33;;;;;;;4.90;2.17;;;5.40;99.90;;;;;;5073118;28;20630;-77
2021/11/29 12:11:01;;;;;;;7.47;4.00;;;5.60;99.90;;;;;;5077831;28;20285;-80
2021/11/29 12:13:42;;;;;;;7.35;3.55;;;5.50;99.90;;;;;;5085945;28;20299;-80
2021/11/29 12:16:10;;;;;;;7.80;3.55;;;5.50;99.90;;;;;;5080141;28;20685;-78
2021/11/29 12:18:47;;;;;;;10.18;3.78;;;5.50;99.90;;;;;;5079154;28;20209;-79
2021/11/29 12:21:18;;;;;;;6.30;3.03;;;5.60;99.90;;;;;;5077727;28;20288;-79
2021/11/29 12:23:49;;;;;;;10.70;3.55;;;5.80;99.90;;;;;;5081657;28;20283;-81
2021/11/29 12:26:16;;;;;;;9.93;3.72;;;6.00;99.90;;;;;;5094709;28;20213;-80
2021/11/29 12:28:46;;;;;;;5.03;2.15;;;5.70;99.90;;;;;;5085586;28;20209;-80
2021/11/29 12:31:36;;;;;;;7.88;3.42;;;5.90;99.90;;;;;;5082811;28;20201;-80
2021/11/29 12:34:05;;;;;;;5.88;2.92;;;5.70;99.90;;;;;;5080607;28;20289;-79
2021/11/29 12:37:09;;;;;;;8.75;4.40;;;5.90;99.90;;;;;;5080041;28;20208;-80
2021/11/29 12:39:50;;;;;;;9.52;3.95;;;5.90;99.90;;;;;;5078973;28;20205;-79
2021/11/29 12:42:51;;;;;;;6.88;3.40;;;5.80;99.90;;;;;;5081504;28;20670;-80
2021/11/29 12:45:21;;;;;;;7.90;3.72;;;5.70;99.90;;;;;;5080077;28;20230;-78
2021/11/29 12:47:49;;;;;;;8.23;3.55;;;5.90;99.90;;;;;;5086064;28;20645;-80